Time;durP1;ratioP1;P1;durP2;ratioP2;P2;SDS_P1;SDS_P2;PMS_P1;PMS_P2;Temp;Humidity;BMP_temperature;BMP_pressure;BME280_temperature;BME280_humidity;BME280_pressure;Samples;Min_cycle;Max_cycle;Signal;HPM_P1;HPM_P2
2021/12/16 00:10:16;;;;;;;;;43.25;36.00;;;;;12.25;100.00;103226.88;5076646;28;45320;-82
2021/12/16 00:29:14;;;;;;;;;49.75;39.75;;;;;12.11;100.00;103220.59;5076206;28;45354;-82
2021/12/16 00:34:09;;;;;;;;;44.75;39.50;;;;;12.06;100.00;103217.66;5077482;28;45312;-82
2021/12/16 00:36:38;;;;;;;;;49.75;40.00;;;;;12.06;100.00;103222.84;5076516;28;45322;-82
2021/12/16 00:39:08;;;;;;;;;53.50;44.75;;;;;12.06;100.00;103221.94;5075325;28;46173;-81
2021/12/16 00:41:35;;;;;;;;;54.25;45.00;;;;;12.05;100.00;103225.31;5075967;27;45607;-81
2021/12/16 00:44:22;;;;;;;;;50.25;41.25;;;;;12.04;100.00;103216.63;5075925;28;45393;-81
2021/12/16 00:47:12;;;;;;;;;51.75;42.00;;;;;12.06;100.00;103224.53;5057505;28;45347;-81
2021/12/16 00:49:48;;;;;;;;;39.50;35.00;;;;;12.07;100.00;103218.56;5079126;27;45434;-82
2021/12/16 00:55:21;;;;;;;;;49.00;38.25;;;;;12.06;100.00;103216.75;5058851;28;45178;-82
2021/12/16 00:57:49;;;;;;;;;51.00;41.50;;;;;12.05;100.00;103205.44;5059360;28;45294;-82
2021/12/16 01:00:16;;;;;;;;;47.50;40.00;;;;;12.04;100.00;103211.44;5058727;28;46217;-81
2021/12/16 01:03:18;;;;;;;;;51.25;40.75;;;;;12.02;100.00;103202.63;5057806;28;45402;-81
2021/12/16 01:06:04;;;;;;;;;53.00;43.00;;;;;12.02;100.00;103210.44;5075901;27;45550;-81
2021/12/16 01:54:44;;;;;;;;;46.75;36.50;;;;;11.94;100.00;103224.44;5077689;27;45352;-82
2021/12/16 01:57:28;;;;;;;;;49.25;39.75;;;;;11.97;100.00;103216.91;5078077;28;46119;-82
2021/12/16 02:00:01;;;;;;;;;49.00;41.00;;;;;11.96;100.00;103219.38;5077867;28;45450;-82
2021/12/16 02:05:20;;;;;;;;;42.50;33.75;;;;;11.94;100.00;103234.81;5077918;27;45381;-83
2021/12/16 02:08:09;;;;;;;;;47.50;39.25;;;;;11.95;100.00;103228.84;5078142;27;45755;-82
2021/12/16 02:10:42;;;;;;;;;49.75;38.75;;;;;11.96;100.00;103224.59;5077707;27;45315;-82
2021/12/16 02:13:31;;;;;;;;;49.75;38.00;;;;;11.96;100.00;103235.84;5078486;28;45228;-82
2021/12/16 02:32:03;;;;;;;;;50.75;40.50;;;;;11.92;100.00;103228.63;5077083;28;45433;-82
2021/12/16 02:34:44;;;;;;;;;50.25;39.50;;;;;11.92;100.00;103242.50;5077946;28;45326;-82
2021/12/16 02:37:17;;;;;;;;;48.25;40.00;;;;;11.95;100.00;103241.84;5077504;28;45257;-82
2021/12/16 02:39:43;;;;;;;;;48.25;39.75;;;;;11.96;100.00;103229.78;5077276;28;45964;-82
2021/12/16 02:42:17;;;;;;;;;52.25;41.00;;;;;11.95;100.00;103231.44;5077702;28;45418;-82
2021/12/16 02:50:25;;;;;;;;;47.25;37.00;;;;;11.98;100.00;103236.94;5057440;28;45892;-82
2021/12/16 02:52:52;;;;;;;;;50.25;42.00;;;;;11.98;100.00;103230.84;5077646;28;45440;-82
2021/12/16 02:55:20;;;;;;;;;52.75;42.00;;;;;11.97;100.00;103235.06;5059597;28;45496;-82
2021/12/16 02:57:57;;;;;;;;;48.50;37.25;;;;;11.98;100.00;103236.94;5077525;28;45394;-82
2021/12/16 03:00:23;;;;;;;;;48.00;38.50;;;;;11.97;100.00;103234.19;5077129;28;45413;-82
2021/12/16 03:02:51;;;;;;;;;46.50;38.25;;;;;11.97;100.00;103237.69;5059329;28;45357;-82
2021/12/16 03:05:19;;;;;;;;;48.25;38.25;;;;;11.96;100.00;103241.06;5077827;28;45249;-82
2021/12/16 03:07:45;;;;;;;;;43.25;37.50;;;;;11.94;100.00;103232.22;5077263;28;46547;-82
2021/12/16 03:13:08;;;;;;;;;51.25;42.00;;;;;11.96;100.00;103233.25;5076991;28;45296;-82
2021/12/16 03:20:46;;;;;;;;;55.75;44.50;;;;;11.96;100.00;103247.94;5076789;28;45295;-82
2021/12/16 03:23:30;;;;;;;;;53.00;44.50;;;;;11.98;100.00;103246.41;5058524;28;45220;-83
2021/12/16 03:26:36;;;;;;;;;56.50;45.00;;;;;11.97;100.00;103244.56;5077295;28;45251;-83
2021/12/16 03:29:12;;;;;;;;;59.00;47.00;;;;;11.94;100.00;103245.22;5076611;27;45388;-82
2021/12/16 03:34:38;;;;;;;;;60.00;46.00;;;;;11.93;100.00;103238.25;5052380;28;45415;-82
2021/12/16 03:37:22;;;;;;;;;55.50;43.75;;;;;11.93;100.00;103241.72;5077139;27;45532;-82
2021/12/16 03:39:52;;;;;;;;;52.50;42.00;;;;;11.93;100.00;103239.13;5077291;27;46327;-82
2021/12/16 03:42:26;;;;;;;;;54.50;44.00;;;;;11.94;100.00;103242.63;5076944;28;46088;-83
2021/12/16 03:44:59;;;;;;;;;56.25;44.75;;;;;11.96;100.00;103238.47;5058088;28;45251;-82
2021/12/16 03:47:39;;;;;;;;;53.50;43.50;;;;;11.96;100.00;103234.97;5076938;27;45318;-82
2021/12/16 03:50:14;;;;;;;;;51.25;40.75;;;;;11.94;100.00;103240.03;5076647;28;46414;-82
2021/12/16 03:52:40;;;;;;;;;54.75;43.75;;;;;11.94;100.00;103237.44;5076520;28;45318;-83
2021/12/16 03:55:08;;;;;;;;;51.75;42.50;;;;;11.95;100.00;103234.03;5076536;27;45398;-82
2021/12/16 03:57:35;;;;;;;;;45.25;36.75;;;;;11.96;100.00;103234.97;5076855;28;45625;-82
2021/12/16 04:00:05;;;;;;;;;53.25;41.50;;;;;11.95;100.00;103239.25;5077323;28;46126;-83
2021/12/16 04:02:34;;;;;;;;;51.00;40.75;;;;;11.96;100.00;103241.06;5076755;28;46508;-82
2021/12/16 04:05:00;;;;;;;;;45.00;37.25;;;;;11.97;100.00;103231.59;5076486;28;45321;-82
2021/12/16 04:07:29;;;;;;;;;54.25;42.50;;;;;12.01;100.00;103244.03;5076765;27;45260;-83
2021/12/16 04:09:55;;;;;;;;;48.00;39.25;;;;;12.02;100.00;103246.78;5076158;28;46552;-82
2021/12/16 04:12:24;;;;;;;;;46.50;38.50;;;;;12.04;100.00;103236.50;5076288;28;45904;-83
2021/12/16 04:14:54;;;;;;;;;44.25;37.00;;;;;12.03;100.00;103246.00;5076710;28;45346;-82
2021/12/16 04:17:24;;;;;;;;;48.00;38.25;;;;;12.02;100.00;103243.25;5076944;28;45333;-82
2021/12/16 04:19:50;;;;;;;;;47.75;36.75;;;;;12.00;100.00;103242.22;5076578;27;45515;-82
2021/12/16 04:22:32;;;;;;;;;47.75;38.00;;;;;12.01;100.00;103247.56;5077849;28;45327;-82
2021/12/16 04:25:01;;;;;;;;;47.75;37.75;;;;;12.04;100.00;103242.59;5062978;28;45476;-82
2021/12/16 04:27:28;;;;;;;;;46.25;38.50;;;;;12.05;100.00;103243.50;5079728;28;45437;-82
2021/12/16 04:29:54;;;;;;;;;43.00;35.25;;;;;12.05;100.00;103244.41;5079584;27;46296;-82
2021/12/16 04:32:20;;;;;;;;;44.00;37.00;;;;;12.06;100.00;103253.09;5079883;28;45460;-82
2021/12/16 04:34:46;;;;;;;;;42.25;37.00;;;;;12.06;100.00;103243.63;5079583;27;45321;-81
2021/12/16 04:37:13;;;;;;;;;46.00;38.00;;;;;12.05;100.00;103253.91;5079820;28;45580;-81
2021/12/16 04:39:40;;;;;;;;;42.75;37.50;;;;;12.03;100.00;103251.19;5079348;28;45362;-82
2021/12/16 04:42:07;;;;;;;;;49.25;38.25;;;;;12.06;100.00;103253.09;5079574;28;45935;-82
2021/12/16 04:44:33;;;;;;;;;42.25;37.25;;;;;12.07;100.00;103254.94;5061063;28;45243;-82
2021/12/16 04:47:02;;;;;;;;;49.50;39.75;;;;;12.10;100.00;103254.25;5079714;28;45596;-82
2021/12/16 04:49:28;;;;;;;;;48.50;40.25;;;;;12.12;100.00;103250.97;5079226;27;45518;-82
2021/12/16 04:51:56;;;;;;;;;45.25;38.00;;;;;12.14;100.00;103264.09;5079145;28;45413;-82
2021/12/16 04:54:24;;;;;;;;;51.25;41.25;;;;;12.11;100.00;103254.34;5079754;27;45227;-82
2021/12/16 04:56:51;;;;;;;;;50.25;41.75;;;;;12.12;100.00;103260.47;5079850;28;45569;-82
2021/12/16 04:59:19;;;;;;;;;47.25;38.75;;;;;12.10;100.00;103257.72;5079231;27;45373;-82
2021/12/16 05:01:50;;;;;;;;;53.00;43.00;;;;;12.08;100.00;103259.34;5078774;28;45535;-82
2021/12/16 05:04:16;;;;;;;;;49.25;40.75;;;;;12.10;100.00;103264.63;5077395;27;45499;-82
2021/12/16 05:06:41;;;;;;;;;46.25;37.75;;;;;12.10;100.00;103270.72;5078028;28;45596;-82
2021/12/16 05:09:11;;;;;;;;;53.75;41.75;;;;;12.12;100.00;103269.16;5079084;28;45520;-82
2021/12/16 05:11:37;;;;;;;;;52.25;42.50;;;;;12.11;100.00;103263.84;5078696;28;45266;-83
2021/12/16 05:14:05;;;;;;;;;49.50;40.75;;;;;12.11;100.00;103261.25;5057257;28;45380;-83
2021/12/16 05:16:31;;;;;;;;;51.00;40.50;;;;;12.13;100.00;103267.47;5074735;27;45331;-82
2021/12/16 05:18:57;;;;;;;;;52.00;42.00;;;;;12.14;100.00;103269.28;5077646;27;45620;-83
2021/12/16 05:26:40;;;;;;;;;50.25;41.00;;;;;12.14;100.00;103269.28;5077205;27;45395;-85
2021/12/16 05:29:06;;;;;;;;;50.75;42.00;;;;;12.14;100.00;103274.50;5077865;27;46255;-78
2021/12/16 05:31:32;;;;;;;;;53.00;42.75;;;;;12.10;100.00;103275.91;5060164;28;45439;-82
2021/12/16 05:33:59;;;;;;;;;55.75;43.50;;;;;12.10;100.00;103275.03;5076714;28;45434;-83
2021/12/16 05:36:25;;;;;;;;;56.00;45.25;;;;;12.11;100.00;103285.53;5079156;27;45579;-82
2021/12/16 05:38:51;;;;;;;;;51.50;42.00;;;;;12.11;100.00;103282.03;5078980;28;46107;-82
2021/12/16 05:41:20;;;;;;;;;49.75;40.75;;;;;12.14;100.00;103284.88;5079077;28;45391;-82
2021/12/16 05:43:46;;;;;;;;;50.00;41.25;;;;;12.11;100.00;103287.22;5079009;27;45451;-83
2021/12/16 05:46:14;;;;;;;;;48.75;41.50;;;;;12.13;100.00;103285.66;5060557;28;45547;-83
2021/12/16 05:48:42;;;;;;;;;52.50;43.00;;;;;12.11;100.00;103290.72;5076232;28;45573;-83
2021/12/16 05:51:19;;;;;;;;;53.75;43.00;;;;;12.10;100.00;103293.19;5078047;27;45902;-83
2021/12/16 05:53:46;;;;;;;;;52.75;42.25;;;;;12.08;100.00;103293.97;5078107;27;45497;-82
2021/12/16 05:56:12;;;;;;;;;49.75;40.00;;;;;12.08;100.00;103291.38;5081090;28;45692;-83
2021/12/16 05:58:38;;;;;;;;;50.50;41.25;;;;;12.07;100.00;103291.28;5077478;28;46109;-83
2021/12/16 06:01:19;;;;;;;;;46.00;38.50;;;;;12.09;100.00;103294.91;5077691;28;45324;-83
2021/12/16 06:03:45;;;;;;;;;52.50;42.75;;;;;12.08;100.00;103301.78;5077713;28;45317;-82
2021/12/16 06:06:15;;;;;;;;;51.75;42.00;;;;;12.07;100.00;103299.97;5078440;28;45422;-82
2021/12/16 06:08:41;;;;;;;;;53.00;41.75;;;;;12.06;100.00;103303.34;5076883;27;45454;-82
2021/12/16 06:11:21;;;;;;;;;49.00;37.50;;;;;12.05;100.00;103305.81;5077423;27;45264;-83
2021/12/16 06:13:59;;;;;;;;;54.00;43.00;;;;;12.06;100.00;103310.22;5073186;28;45307;-83
2021/12/16 06:27:26;;;;;;;;;52.50;41.75;;;;;12.07;100.00;103304.25;5077124;28;45378;-82
2021/12/16 06:29:51;;;;;;;;;50.25;40.00;;;;;12.06;100.00;103305.03;5077252;27;46525;-82
2021/12/16 06:32:18;;;;;;;;;54.75;42.75;;;;;12.06;100.00;103303.34;5057920;28;45421;-81
2021/12/16 06:34:46;;;;;;;;;48.50;41.75;;;;;12.07;100.00;103294.75;5086578;28;45464;-81
2021/12/16 06:37:20;;;;;;;;;48.50;39.50;;;;;12.10;100.00;103301.00;5074910;27;45601;-81
2021/12/16 06:39:46;;;;;;;;;51.25;43.00;;;;;12.08;100.00;103301.78;5054183;28;48074;-81
2021/12/16 06:42:12;;;;;;;;;50.00;41.00;;;;;12.10;100.00;103306.19;5076313;28;45477;-81
2021/12/16 06:44:47;;;;;;;;;51.75;41.75;;;;;12.11;100.00;103308.00;5075729;28;45533;-82
2021/12/16 06:47:19;;;;;;;;;51.25;42.75;;;;;12.12;100.00;103300.31;5080977;27;45501;-82
2021/12/16 06:49:47;;;;;;;;;53.00;43.00;;;;;12.11;100.00;103308.88;5056160;28;45348;-81
2021/12/16 06:52:17;;;;;;;;;57.50;44.25;;;;;12.11;100.00;103306.28;5056559;28;45452;-81
2021/12/16 06:57:39;;;;;;;;;51.75;42.75;;;;;12.11;100.00;103308.88;5079398;28;45407;-88
2021/12/16 07:00:17;;;;;;;;;51.75;41.50;;;;;12.12;100.00;103326.28;5077419;28;46166;-90
2021/12/16 07:05:25;;;;;;;;;53.50;42.50;;;;;12.11;100.00;103328.78;5076222;27;45422;-87
2021/12/16 07:07:51;;;;;;;;;50.25;42.50;;;;;12.10;100.00;103316.56;5080871;27;45406;-92
2021/12/16 07:10:24;;;;;;;;;53.75;42.25;;;;;12.08;100.00;103324.25;5075381;27;45537;-86
2021/12/16 07:12:53;;;;;;;;;53.00;41.75;;;;;12.10;100.00;103326.97;5076326;27;46045;-88
2021/12/16 07:15:26;;;;;;;;;53.75;42.25;;;;;12.10;100.00;103326.97;5075515;27;45686;-82
2021/12/16 07:17:55;;;;;;;;;47.00;38.25;;;;;12.12;100.00;103335.78;5075696;28;45521;-84
2021/12/16 07:20:27;;;;;;;;;48.50;41.50;;;;;12.11;100.00;103337.47;5061000;28;46751;-90
2021/12/16 07:22:53;;;;;;;;;53.00;43.75;;;;;12.14;100.00;103327.31;5081917;28;45292;-87
2021/12/16 07:25:19;;;;;;;;;53.25;42.50;;;;;12.14;100.00;103331.63;5065474;28;45520;-82
2021/12/16 07:27:51;;;;;;;;;50.75;42.00;;;;;12.12;100.00;103326.28;5076297;27;45709;-83
2021/12/16 07:30:19;;;;;;;;;53.50;43.25;;;;;12.12;100.00;103335.78;5075415;28;45589;-81
2021/12/16 07:32:46;;;;;;;;;51.50;41.00;;;;;12.11;100.00;103332.25;5074181;28;45497;-81
2021/12/16 07:35:16;;;;;;;;;51.75;43.25;;;;;12.12;100.00;103322.78;5056432;28;45445;-82
2021/12/16 07:37:42;;;;;;;;;54.50;45.25;;;;;12.14;100.00;103329.91;5074653;28;45503;-80
2021/12/16 07:40:11;;;;;;;;;52.75;42.25;;;;;12.14;100.00;103337.72;5074639;28;46075;-80
2021/12/16 07:43:10;;;;;;;;;50.50;42.25;;;;;12.16;100.00;103345.59;5072561;28;45473;-80
2021/12/16 07:45:24;;;;;;;;;52.50;44.25;;;;;12.17;100.00;103337.03;5071788;27;45489;-79
2021/12/16 07:47:51;;;;;;;;;49.25;41.00;;;;;12.15;100.00;103342.13;5069934;28;45623;-80
2021/12/16 07:50:18;;;;;;;;;58.50;45.75;;;;;12.16;100.00;103340.41;5074142;28;45544;-80
2021/12/16 07:52:44;;;;;;;;;52.50;42.25;;;;;12.17;100.00;103339.63;5074471;28;45596;-78
2021/12/16 07:55:13;;;;;;;;;50.75;42.50;;;;;12.17;100.00;103331.84;5073649;27;45451;-79
2021/12/16 07:57:40;;;;;;;;;54.75;44.50;;;;;12.15;100.00;103343.81;5059069;28;45569;-80
2021/12/16 08:00:14;;;;;;;;;54.00;44.00;;;;;12.15;100.00;103339.53;5079022;28;46026;-80
2021/12/16 08:02:40;;;;;;;;;53.50;42.50;;;;;12.15;100.00;103354.22;5078584;28;46022;-79
2021/12/16 08:05:08;;;;;;;;;53.25;45.00;;;;;12.17;100.00;103352.63;5080568;28;45417;-78
2021/12/16 08:07:33;;;;;;;;;57.00;43.00;;;;;12.20;100.00;103351.16;5061220;27;46005;-77
2021/12/16 08:09:59;;;;;;;;;50.25;41.75;;;;;12.23;100.00;103358.31;5079295;28;46040;-79
2021/12/16 08:12:25;;;;;;;;;50.75;42.00;;;;;12.24;100.00;103357.53;5078573;28;45186;-79
2021/12/16 08:14:51;;;;;;;;;49.00;40.75;;;;;12.26;100.00;103361.13;5077585;28;45384;-80
2021/12/16 08:17:17;;;;;;;;;51.00;41.00;;;;;12.27;100.00;103372.44;5078428;28;45156;-78
2021/12/16 08:19:45;;;;;;;;;51.25;41.25;;;;;12.29;100.00;103363.97;5077976;28;45377;-79
2021/12/16 08:22:12;;;;;;;;;54.00;44.50;;;;;12.31;100.00;103366.72;5078025;28;45800;-77
2021/12/16 08:24:38;;;;;;;;;53.75;43.75;;;;;12.32;100.00;103359.03;5078422;27;45472;-79
2021/12/16 08:27:05;;;;;;;;;54.75;43.50;;;;;12.32;100.00;103366.84;5060615;28;45303;-78
2021/12/16 08:29:31;;;;;;;;;56.25;44.75;;;;;12.34;100.00;103365.28;5079051;27;46598;-78
2021/12/16 08:31:57;;;;;;;;;53.25;43.75;;;;;12.34;100.00;103362.66;5078475;27;45266;-80
2021/12/16 08:34:25;;;;;;;;;56.75;44.75;;;;;12.36;100.00;103366.28;5078568;28;45220;-77
2021/12/16 08:36:50;;;;;;;;;58.00;45.50;;;;;12.36;100.00;103368.88;5078889;27;45552;-77
2021/12/16 08:39:16;;;;;;;;;56.00;44.75;;;;;12.37;100.00;103362.00;5059671;27;47821;-76
2021/12/16 08:41:47;;;;;;;;;56.25;46.00;;;;;12.38;100.00;103366.41;5091216;27;45890;-76
2021/12/16 08:44:14;;;;;;;;;60.50;46.00;;;;;12.37;100.00;103370.69;5078851;28;45464;-77
2021/12/16 08:46:44;;;;;;;;;52.00;42.00;;;;;12.36;100.00;103368.88;5078749;27;45496;-78
2021/12/16 08:49:10;;;;;;;;;54.75;44.75;;;;;12.37;100.00;103382.78;5080856;27;45427;-79
2021/12/16 08:51:41;;;;;;;;;46.50;38.50;;;;;12.38;100.00;103371.59;5089609;27;46327;-80
2021/12/16 08:54:06;;;;;;;;;58.50;46.00;;;;;12.38;100.00;103375.09;5079116;28;45430;-84
2021/12/16 08:56:33;;;;;;;;;56.00;45.50;;;;;12.41;100.00;103387.44;5075237;27;45585;-76
2021/12/16 08:59:01;;;;;;;;;56.25;45.00;;;;;12.42;100.00;103388.34;5098909;27;46627;-87
2021/12/16 09:01:30;;;;;;;;;53.25;43.75;;;;;12.43;100.00;103384.94;5098944;27;45264;-83
2021/12/16 09:03:57;;;;;;;;;52.25;42.75;;;;;12.45;100.00;103386.00;5096266;27;45333;-83
2021/12/16 09:06:24;;;;;;;;;58.00;45.00;;;;;12.44;100.00;103376.38;5072223;27;45664;-81
2021/12/16 09:08:50;;;;;;;;;54.00;45.00;;;;;12.47;100.00;103385.31;5077397;27;45417;-82
2021/12/16 09:11:21;;;;;;;;;54.75;44.50;;;;;12.48;100.00;103388.81;5096638;27;45301;-80
2021/12/16 09:13:49;;;;;;;;;59.25;46.00;;;;;12.49;100.00;103388.94;5098525;27;45445;-83
2021/12/16 09:16:17;;;;;;;;;54.50;44.50;;;;;12.51;100.00;103400.38;5085555;27;45592;-86
2021/12/16 09:18:43;;;;;;;;;58.00;47.00;;;;;12.52;100.00;103398.66;5061230;28;47799;-81
2021/12/16 09:21:13;;;;;;;;;55.75;44.00;;;;;12.54;100.00;103402.28;5078267;28;45397;-83
2021/12/16 09:23:42;;;;;;;;;62.00;48.50;;;;;12.56;100.00;103403.34;5078250;28;45279;-84
2021/12/16 09:26:08;;;;;;;;;58.50;48.00;;;;;12.59;100.00;103402.66;5078013;28;45404;-84
2021/12/16 09:28:35;;;;;;;;;58.50;45.50;;;;;12.61;100.00;103407.19;5077646;28;46025;-81
2021/12/16 09:31:02;;;;;;;;;52.25;40.25;;;;;12.62;100.00;103403.78;5078092;27;45751;-82
2021/12/16 09:33:28;;;;;;;;;58.00;46.50;;;;;12.67;100.00;103409.34;5058093;28;45319;-84
2021/12/16 09:35:57;;;;;;;;;51.50;43.00;;;;;12.67;100.00;103407.69;5058115;28;45238;-87
2021/12/16 09:38:24;;;;;;;;;59.00;46.50;;;;;12.69;100.00;103411.28;5039858;28;46976;-86
2021/12/16 09:40:54;;;;;;;;;59.25;46.25;;;;;12.71;100.00;103416.63;5058785;28;45806;-85
2021/12/16 09:43:28;;;;;;;;;57.25;45.00;;;;;12.74;100.00;103415.94;5065678;27;46087;-85
2021/12/16 09:45:57;;;;;;;;;56.50;45.00;;;;;12.76;100.00;103424.78;5079393;27;45287;-87
2021/12/16 09:48:24;;;;;;;;;57.00;46.75;;;;;12.76;100.00;103420.47;5078262;28;45946;-83
2021/12/16 09:50:50;;;;;;;;;56.25;44.25;;;;;12.80;100.00;103427.72;5078270;28;45394;-85
2021/12/16 09:53:17;;;;;;;;;56.75;43.50;;;;;12.84;100.00;103424.59;5060138;28;45287;-84
2021/12/16 09:55:46;;;;;;;;;58.50;46.25;;;;;12.85;100.00;103431.56;5078753;28;45530;-84
2021/12/16 09:58:12;;;;;;;;;58.25;43.50;;;;;12.88;100.00;103438.72;5082712;27;45334;-85
2021/12/16 10:00:38;;;;;;;;;55.75;44.00;;;;;12.88;100.00;103436.13;5081938;28;45494;-85
2021/12/16 10:03:05;;;;;;;;;55.00;44.00;;;;;12.93;100.00;103433.88;5082383;28;45257;-83
2021/12/16 10:05:34;;;;;;;;;54.25;44.00;;;;;12.94;100.00;103427.91;5081896;27;45485;-86
2021/12/16 10:08:03;;;;;;;;;56.00;43.50;;;;;12.93;100.00;103433.88;5082656;28;46464;-85
2021/12/16 10:10:28;;;;;;;;;55.75;43.00;;;;;12.93;100.00;103429.56;5080993;27;45243;-86
2021/12/16 10:12:58;;;;;;;;;53.25;42.75;;;;;12.95;100.00;103429.72;5082995;28;45312;-85
2021/12/16 10:18:03;;;;;;;;;50.75;41.50;;;;;12.99;100.00;103429.16;5074723;28;45417;-87
2021/12/16 10:20:34;;;;;;;;;52.00;41.25;;;;;13.02;100.00;103434.59;5077377;28;45296;-86
2021/12/16 10:23:09;;;;;;;;;30.00;27.00;;;;;12.99;100.00;103430.06;5077557;28;45347;-86
2021/12/16 10:25:44;;;;;;;;;50.25;42.00;;;;;13.01;100.00;103432.78;5076943;28;45501;-84
2021/12/16 10:28:23;;;;;;;;;45.50;38.00;;;;;13.02;100.00;103434.59;5058367;28;47929;-87
2021/12/16 10:31:12;;;;;;;;;49.00;39.25;;;;;13.05;100.00;103428.72;5077191;27;46061;-84
2021/12/16 10:33:40;;;;;;;;;48.00;39.25;;;;;13.08;100.00;103439.34;5059786;28;45419;-84
2021/12/16 10:36:29;;;;;;;;;48.25;41.00;;;;;13.10;100.00;103440.38;5079854;27;45570;-85
2021/12/16 10:38:59;;;;;;;;;46.50;38.00;;;;;13.10;100.00;103443.00;5060274;28;45787;-79
2021/12/16 10:41:41;;;;;;;;;49.50;39.50;;;;;13.12;100.00;103441.41;5083834;27;45283;-85
2021/12/16 10:44:09;;;;;;;;;35.75;33.00;;;;;13.12;100.00;103431.91;5079614;28;45304;-87
2021/12/16 10:46:54;;;;;;;;;49.25;38.00;;;;;13.15;100.00;103428.63;5079545;28;45526;-85
2021/12/16 10:49:26;;;;;;;;;52.75;42.00;;;;;13.17;100.00;103429.66;5060707;28;46178;-88
2021/12/16 10:51:56;;;;;;;;;52.25;43.50;;;;;13.22;100.00;103432.59;5038853;28;45323;-89
2021/12/16 10:54:27;;;;;;;;;51.75;42.00;;;;;13.24;100.00;103426.72;5057512;28;45200;-89
2021/12/16 10:57:20;;;;;;;;;49.50;40.50;;;;;13.27;100.00;103429.56;5057434;28;45541;-87
2021/12/16 10:59:47;;;;;;;;;53.00;41.50;;;;;13.30;100.00;103427.19;5056254;28;45423;-87
2021/12/16 11:02:15;;;;;;;;;47.00;39.50;;;;;13.31;100.00;103420.28;5061074;28;45297;-84
2021/12/16 11:04:45;;;;;;;;;53.25;42.25;;;;;13.32;100.00;103417.81;5040840;28;45174;-86
2021/12/16 11:07:16;;;;;;;;;48.50;38.00;;;;;13.36;100.00;103420.63;5056840;28;45259;-84
2021/12/16 11:09:57;;;;;;;;;49.50;39.25;;;;;13.36;100.00;103423.25;5056453;28;45600;-83
2021/12/16 11:12:34;;;;;;;;;45.75;38.00;;;;;13.37;100.00;103422.44;5057466;28;45939;-84
2021/12/16 11:15:09;;;;;;;;;45.50;36.00;;;;;13.39;100.00;103434.81;5050493;27;45564;-80
2021/12/16 11:17:43;;;;;;;;;45.25;35.75;;;;;13.42;100.00;103434.16;5091922;28;45360;-82
2021/12/16 11:20:15;;;;;;;;;44.00;36.50;;;;;13.44;100.00;103425.66;5092156;28;45578;-81
2021/12/16 11:22:41;;;;;;;;;42.75;34.50;;;;;13.44;100.00;103429.97;5058372;28;45286;-77
2021/12/16 11:25:21;;;;;;;;;45.00;35.75;;;;;13.47;100.00;103427.59;5076366;28;45404;-81
2021/12/16 11:28:04;;;;;;;;;38.75;32.75;;;;;13.50;100.00;103427.81;5084096;28;45583;-80
2021/12/16 11:30:36;;;;;;;;;42.00;31.25;;;;;13.53;100.00;103433.28;5080282;28;46313;-86
2021/12/16 11:33:14;;;;;;;;;44.75;34.25;;;;;13.55;100.00;103426.47;5058578;28;45539;-88
2021/12/16 11:35:43;;;;;;;;;40.50;33.25;;;;;13.59;100.00;103423.31;5083833;28;45791;-83
2021/12/16 11:38:20;;;;;;;;;39.00;34.75;;;;;13.61;100.00;103426.00;5083090;28;45333;-86
2021/12/16 11:41:11;;;;;;;;;33.50;31.75;;;;;13.64;100.00;103428.84;5076367;28;45425;-83
2021/12/16 11:43:42;;;;;;;;;32.25;30.50;;;;;13.66;100.00;103432.47;5075114;28;45877;-82
2021/12/16 11:46:31;;;;;;;;;36.50;31.75;;;;;13.68;100.00;103427.38;5056240;27;45363;-80
2021/12/16 11:49:21;;;;;;;;;34.50;31.00;;;;;13.70;100.00;103420.59;5065122;28;45433;-80
2021/12/16 11:51:56;;;;;;;;;40.00;32.75;;;;;13.69;100.00;103416.19;5072823;28;46399;-78
2021/12/16 11:54:36;;;;;;;;;34.75;32.25;;;;;13.71;100.00;103422.41;5074194;27;45936;-80
2021/12/16 11:57:15;;;;;;;;;34.25;31.75;;;;;13.73;100.00;103420.84;5072511;27;45290;-80
2021/12/16 11:59:48;;;;;;;;;38.50;33.75;;;;;13.73;100.00;103426.94;5079876;28;45327;-79
2021/12/16 12:02:35;;;;;;;;;43.25;35.50;;;;;13.75;100.00;103424.47;5081520;28;46336;-77
2021/12/16 12:05:30;;;;;;;;;35.75;31.75;;;;;13.76;100.00;103421.06;5079821;27;45496;-77
2021/12/16 12:07:58;;;;;;;;;39.00;33.75;;;;;13.78;100.00;103419.44;5074957;27;45398;-78
2021/12/16 12:10:45;;;;;;;;;40.50;34.25;;;;;13.78;100.00;103422.97;5072228;28;45465;-77
2021/12/16 12:13:15;;;;;;;;;49.00;39.75;;;;;13.79;100.00;103416.06;5071054;28;46437;-78
2021/12/16 12:16:25;;;;;;;;;43.75;36.25;;;;;13.78;100.00;103412.56;5074336;28;45425;-76
2021/12/16 12:18:54;;;;;;;;;45.25;35.75;;;;;13.80;100.00;103415.28;5057127;28;45374;-80
2021/12/16 12:21:37;;;;;;;;;40.50;35.75;;;;;13.81;100.00;103416.19;5074786;28;45505;-80
2021/12/16 12:24:19;;;;;;;;;35.50;31.75;;;;;13.82;100.00;103410.19;5074943;28;45975;-78
2021/12/16 12:26:54;;;;;;;;;35.50;28.75;;;;;13.83;100.00;103415.50;5071387;28;45347;-81
2021/12/16 12:29:29;;;;;;;;;25.75;24.00;;;;;13.84;100.00;103412.09;5074432;27;45327;-80
2021/12/16 12:32:01;;;;;;;;;31.75;29.75;;;;;13.85;100.00;103399.97;5075400;27;45335;-77
2021/12/16 12:34:29;;;;;;;;;33.50;31.00;;;;;13.87;100.00;103411.41;5074839;28;45415;-79
2021/12/16 12:36:58;;;;;;;;;38.25;32.75;;;;;13.87;100.00;103406.22;5074869;28;45485;-79
2021/12/16 12:39:30;;;;;;;;;34.50;32.75;;;;;13.87;100.00;103401.94;5075356;27;45353;-80
2021/12/16 12:41:57;;;;;;;;;36.50;31.25;;;;;13.89;100.00;103400.31;5075053;27;45254;-79
2021/12/16 12:44:23;;;;;;;;;34.25;31.50;;;;;13.87;100.00;103407.13;5059527;28;45343;-80
2021/12/16 12:46:50;;;;;;;;;35.25;30.75;;;;;13.88;100.00;103405.41;5077988;28;46020;-79
2021/12/16 12:49:18;;;;;;;;;38.25;31.00;;;;;13.87;100.00;103393.19;5077954;27;45357;-79
2021/12/16 12:51:47;;;;;;;;;35.75;31.75;;;;;13.87;100.00;103394.13;5078143;28;45361;-79
2021/12/16 12:54:18;;;;;;;;;44.50;32.25;;;;;13.88;100.00;103390.69;5077165;28;45487;-79
2021/12/16 12:56:45;;;;;;;;;35.25;30.50;;;;;13.88;100.00;103381.97;5078201;28;45324;-79
2021/12/16 12:59:15;;;;;;;;;31.25;26.75;;;;;13.89;100.00;103389.00;5059137;28;45550;-79
2021/12/16 13:01:51;;;;;;;;;25.00;23.75;;;;;13.91;100.00;103392.63;5078196;28;45446;-78
2021/12/16 13:04:31;;;;;;;;;31.75;29.50;;;;;13.89;100.00;103382.09;5078372;28;46422;-81
2021/12/16 13:07:05;;;;;;;;;30.25;28.75;;;;;13.86;100.00;103389.69;5077174;28;45347;-79
2021/12/16 13:09:36;;;;;;;;;30.75;27.75;;;;;13.89;100.00;103386.41;5079033;27;45213;-79
2021/12/16 13:12:30;;;;;;;;;28.00;26.50;;;;;13.88;100.00;103380.28;5078221;28;45537;-79
2021/12/16 13:15:05;;;;;;;;;19.50;19.50;;;;;13.92;100.00;103376.22;5077557;28;45377;-80
2021/12/16 13:23:36;;;;;;;;;28.00;26.50;;;;;13.96;100.00;103375.63;5034583;28;45396;-80
2021/12/16 13:29:05;;;;;;;;;29.00;26.50;;;;;13.96;100.00;103370.41;5076775;28;45290;-79
2021/12/16 13:31:59;;;;;;;;;32.25;27.75;;;;;13.96;100.00;103373.03;5077830;28;45346;-78
2021/12/16 13:34:31;;;;;;;;;27.25;24.50;;;;;13.97;100.00;103367.03;5057707;28;45439;-80
2021/12/16 13:37:04;;;;;;;;;27.50;25.25;;;;;13.97;100.00;103371.34;5057725;28;46289;-79
2021/12/16 13:39:30;;;;;;;;;28.75;27.50;;;;;13.98;100.00;103370.53;5057997;28;45542;-79
2021/12/16 13:42:05;;;;;;;;;29.25;24.75;;;;;13.99;100.00;103360.22;5039200;28;45351;-79
2021/12/16 13:44:48;;;;;;;;;30.50;28.50;;;;;14.00;100.00;103372.47;5057953;28;45372;-78
2021/12/16 14:02:00;;;;;;;;;24.25;23.00;;;;;13.95;100.00;103371.22;5077337;28;45369;-78